Sarfaq Ittuk — OWDD — position and weather

sailwx.info

Track history (hours):
 
Tides and Currents Weather Stations Pressure Air Temp Water Temp Dewpoint Dewpoint Depression Visibility Wind Speed Wind Dir Waves Ship Positions

Sarfaq Ittuk

Last reported at 2020-Aug-08 05:00 UTC. Time now 2020-Aug-10 00:07 UTC.
Position N 64°60' W 052°47'.

Length 73 m; beam 11.1 m; draft 3.7 m.

Type: Passenger vessel. MMSI: 331000499.

Date/timePositionNaut miles runAvg speedWind from/ knotsBaromVisibWave heightAir tempDewpointWater temp
2020-Aug-08 05:00N 64°60' W 052°47'1010.2
2020-Aug-08 04:01N 64°50' W 052°42'510.1
2020-Aug-08 03:30N 64°45' W 052°40'510.1
2020-Aug-08 03:01N 64°40' W 052°38'2210.9
2020-Aug-08 01:00N 64°18' W 052°27'1111.0
2020-Aug-08 00:00N 64°08' W 052°18'15 7.7
2020-Aug-07 22:00N 64°10' W 051°43'0 0.0
2020-Aug-07 19:30N 64°10' W 051°43'0 0.0
2020-Aug-07 17:30N 64°10' W 051°43'0 0.0
2020-Aug-07 16:30N 64°10' W 051°43'0 0.0
2020-Aug-07 13:46N 64°10' W 051°43'0 0.0
2020-Aug-07 13:00N 64°10' W 051°43'0 0.0
2020-Aug-07 12:30N 64°10' W 051°43'0 0.0
2020-Aug-07 10:30N 64°10' W 051°43'0 0.0
2020-Aug-07 10:00N 64°10' W 051°43'23 6.6
2020-Aug-07 06:27N 63°47' W 051°35'  
2020-Aug-04 11:01N 64°10' W 051°43'0 0.0
2020-Aug-04 09:30N 64°10' W 051°43'0 0.0
2020-Aug-04 09:00N 64°10' W 051°43'3 5.3
2020-Aug-04 08:30N 64°09' W 051°48'28 8.0
2020-Aug-04 05:00N 64°29' W 052°32'1111.2
2020-Aug-04 04:00N 64°40' W 052°37'1211.6
2020-Aug-04 03:00N 64°51' W 052°42'41 9.2
2020-Aug-03 22:30N 65°32' W 052°51'42 8.5
2020-Aug-03 17:30N 66°07' W 053°51'  
2020-Aug-01 05:27N 65°03' W 052°48'2510.2
2020-Aug-01 03:00N 64°39' W 052°37'5 9.9
2020-Aug-01 02:30N 64°34' W 052°35'2110.5
2020-Aug-01 00:30N 64°13' W 052°24'510.9
2020-Aug-01 00:00N 64°08' W 052°19'16 6.4
2020-Jul-31 21:30N 64°10' W 051°43'0 0.0
2020-Jul-31 18:01N 64°10' W 051°43'0 0.0
2020-Jul-31 15:30N 64°10' W 051°43'0 0.0
2020-Jul-31 12:00N 64°10' W 051°43'0 0.0
2020-Jul-31 10:00N 64°10' W 051°43'26 7.3
2020-Jul-31 06:30N 63°45' W 051°36'  
Track history (hours):
 
Tides and Currents Weather Stations Pressure Air Temp Water Temp Dewpoint Dewpoint Depression Visibility Wind Speed Wind Dir Waves Ship Positions

Sarfaq Ittuk

Last reported at 2020-Aug-08 05:00 UTC. Time now 2020-Aug-10 00:07 UTC.
Position N 64°60' W 052°47'.

Length 73 m; beam 11.1 m; draft 3.7 m.

Type: Passenger vessel. MMSI: 331000499.

Date/timePositionNaut miles runAvg speedWind from/ knotsBaromVisibWave heightAir tempDewpointWater temp
2020-Aug-08 05:00N 64°60' W 052°47'1010.2
2020-Aug-08 04:01N 64°50' W 052°42'510.1
2020-Aug-08 03:30N 64°45' W 052°40'510.1
2020-Aug-08 03:01N 64°40' W 052°38'2210.9
2020-Aug-08 01:00N 64°18' W 052°27'1111.0
2020-Aug-08 00:00N 64°08' W 052°18'15 7.7
2020-Aug-07 22:00N 64°10' W 051°43'0 0.0
2020-Aug-07 19:30N 64°10' W 051°43'0 0.0
2020-Aug-07 17:30N 64°10' W 051°43'0 0.0
2020-Aug-07 16:30N 64°10' W 051°43'0 0.0
2020-Aug-07 13:46N 64°10' W 051°43'0 0.0
2020-Aug-07 13:00N 64°10' W 051°43'0 0.0
2020-Aug-07 12:30N 64°10' W 051°43'0 0.0
2020-Aug-07 10:30N 64°10' W 051°43'0 0.0
2020-Aug-07 10:00N 64°10' W 051°43'23 6.6
2020-Aug-07 06:27N 63°47' W 051°35'  
2020-Aug-04 11:01N 64°10' W 051°43'0 0.0
2020-Aug-04 09:30N 64°10' W 051°43'0 0.0
2020-Aug-04 09:00N 64°10' W 051°43'3 5.3
2020-Aug-04 08:30N 64°09' W 051°48'28 8.0
2020-Aug-04 05:00N 64°29' W 052°32'1111.2
2020-Aug-04 04:00N 64°40' W 052°37'1211.6
2020-Aug-04 03:00N 64°51' W 052°42'41 9.2
2020-Aug-03 22:30N 65°32' W 052°51'42 8.5
2020-Aug-03 17:30N 66°07' W 053°51'  
2020-Aug-01 05:27N 65°03' W 052°48'2510.2
2020-Aug-01 03:00N 64°39' W 052°37'5 9.9
2020-Aug-01 02:30N 64°34' W 052°35'2110.5
2020-Aug-01 00:30N 64°13' W 052°24'510.9
2020-Aug-01 00:00N 64°08' W 052°19'16 6.4
2020-Jul-31 21:30N 64°10' W 051°43'0 0.0
2020-Jul-31 18:01N 64°10' W 051°43'0 0.0
2020-Jul-31 15:30N 64°10' W 051°43'0 0.0
2020-Jul-31 12:00N 64°10' W 051°43'0 0.0
2020-Jul-31 10:00N 64°10' W 051°43'26 7.3
2020-Jul-31 06:30N 63°45' W 051°36'  

Dump ship's entire track history